Terminal Aerodrome Forecast
Issued by NWS Omaha/Valley, NE

Home | Current Version | Previous Version | Text Only | Print | Product List | Glossary On
Versions: 1 2 3 4 5 6 7 8 9 10 11 12 13 14 15 16 17 18 19 20 21 22 23 24 25 26 27 28 29 30 31 32 33
000
FTUS43 KOAX 011729
TAFOMA
TAF
KOMA 011729Z 0118/0218 VRB04KT P6SM FEW013 BKN020
     FM012100 29003KT P6SM BKN050 BKN250
     FM020600 35004KT 5SM BR OVC050
      TEMPO 0206/0209 5SM -DZ BR SCT015 OVC050
     FM021200 35007KT 4SM -DZ BR OVC007
      TEMPO 0212/0214 2SM -SHRA BR OVC005=

USA.gov is the U.S. government's official web portal to all federal, state and local government web resources and services.